Accueil
METAR-TAF:

METAR-TAF

Aéroports :

Aéroport de Mostar

Mostar, Bosnie-Herzégovine

latitude: 43-21N, longitude: 017-48E, altitude: 108 m

Observation

Le bulletin a été fait il y a 25 minutes, à 00:00 UTC
Vent 1 kt de direction variable
Température 20°C
Humidité 68%
Pression 1014 hPa
Visibilité 10 km ou plus
pas de nuages en-dessous de 1500 mètres et pas de cumulonimbus.

METAR: LQMO 040000Z VRB01KT CAVOK 20/14 Q1014

Heure: 02:25 (00:25 UTC)

Prévision

Le bulletin a été fait il y a 1 heure et 25 minutes, à 23:00 UTC
Prévision valable du 04 à 00 UTC au 04 à 24 UTC
Vent 2 kt de direction variable
Visibilité 10 km ou plus
pas de nuages en-dessous de 1500 mètres et pas de cumulonimbus.
Probabilité 40% :
Temporairement
du 04 à 11 UTC au 04 à 17 UTC
Vent 10 kt de sud/sud-ouest

TAF: LQMO 032300Z 0400/0424 VRB02KT CAVOK TX37/0414Z TN17/0403Z PROB40 TEMPO 0411/0417 20010KT

Observations et prévisions météorologiques de plus de 4000 aéroports (messages METAR et TAF).

Les stations disponibles sont représentées par des disques jaunes et rouges sur la carte.

Passer la souris dessus pour voir le nom de la station.

Cliquer dessus pour voir les observations et prévisions météorologiques.

Pour changer de carte: cliquez sur les boutons verts avec une croix noire pour zoomer, sur le bouton vert avec un tiret pour effectuer un zoom arrière, ou sur les flèches vertes pour les cartes adjacentes.


METAR-TAF: